Time;durP1;ratioP1;P1;durP2;ratioP2;P2;SDS_P1;SDS_P2;PMS_P1;PMS_P2;Temp;Humidity;BMP_temperature;BMP_pressure;BME280_temperature;BME280_humidity;BME280_pressure;Samples;Min_cycle;Max_cycle;Signal;HPM_P1;HPM_P2
2022/03/01 09:05:51;;;;;;;21.87;8.40;;;11.00;50.40;;;;;;5128190;27;20276;-52
2022/03/01 09:08:18;;;;;;;18.57;6.80;;;10.80;50.40;;;;;;5101041;27;20661;-53
2022/03/01 09:10:45;;;;;;;10.17;4.90;;;10.70;50.70;;;;;;5108715;28;20194;-46
2022/03/01 09:13:13;;;;;;;8.43;4.50;;;10.70;50.60;;;;;;5105981;28;20373;-52
2022/03/01 09:15:40;;;;;;;6.80;4.30;;;10.70;50.20;;;;;;5103196;28;20194;-46
2022/03/01 09:18:07;;;;;;;7.90;3.93;;;10.80;49.20;;;;;;5106111;28;20692;-50
2022/03/01 09:20:35;;;;;;;8.33;3.53;;;11.00;49.00;;;;;;5106064;28;20197;-49
2022/03/01 09:23:04;;;;;;;6.17;3.93;;;11.10;48.40;;;;;;5101459;28;20201;-50
2022/03/01 09:25:31;;;;;;;6.53;4.10;;;11.10;47.70;;;;;;5106521;28;20212;-48
2022/03/01 09:27:59;;;;;;;6.30;3.30;;;11.20;46.90;;;;;;5102927;28;20253;-53
2022/03/01 09:30:26;;;;;;;7.63;3.20;;;11.20;47.10;;;;;;5106708;28;20286;-52
2022/03/01 09:32:54;;;;;;;6.97;3.60;;;11.30;46.60;;;;;;5095200;28;21296;-49
2022/03/01 09:35:21;;;;;;;5.63;3.40;;;11.50;45.80;;;;;;5115020;27;20779;-53
2022/03/01 09:37:48;;;;;;;3.00;2.70;;;11.70;45.30;;;;;;5098915;28;20201;-52
2022/03/01 09:40:17;;;;;;;4.57;3.10;;;11.70;45.30;;;;;;5111581;28;20212;-51
2022/03/01 09:42:44;;;;;;;5.20;3.43;;;11.90;45.20;;;;;;5101592;28;20643;-49
2022/03/01 09:45:13;;;;;;;6.87;3.73;;;12.10;44.50;;;;;;5106461;28;20208;-47
2022/03/01 09:47:42;;;;;;;5.83;3.43;;;12.30;44.00;;;;;;5103994;28;20216;-52
2022/03/01 09:50:10;;;;;;;4.77;3.20;;;12.30;43.10;;;;;;5109439;28;20577;-54
2022/03/01 09:52:38;;;;;;;6.17;3.27;;;12.50;43.20;;;;;;5105604;28;20200;-54
2022/03/01 09:55:07;;;;;;;4.60;3.37;;;12.70;42.90;;;;;;5100180;28;20198;-53
2022/03/01 09:57:35;;;;;;;4.93;3.23;;;13.00;42.10;;;;;;5108251;28;20206;-51
2022/03/01 10:00:03;;;;;;;6.20;3.40;;;13.80;41.80;;;;;;5122352;27;20208;-52
2022/03/01 10:02:39;;;;;;;4.53;3.00;;;14.50;40.90;;;;;;5107997;28;20200;-49
2022/03/01 10:05:07;;;;;;;5.20;3.03;;;15.00;40.60;;;;;;5108666;28;20874;-52
2022/03/01 10:07:34;;;;;;;4.77;3.00;;;15.50;40.30;;;;;;5103175;28;20652;-51
2022/03/01 10:10:06;;;;;;;4.80;3.17;;;15.70;38.10;;;;;;5105502;28;20668;-53
2022/03/01 10:12:36;;;;;;;3.20;2.90;;;16.00;38.40;;;;;;5104307;28;20205;-53
2022/03/01 10:15:06;;;;;;;4.70;3.30;;;16.60;38.40;;;;;;5104038;28;20193;-50
2022/03/01 10:17:35;;;;;;;10.50;4.27;;;17.10;37.90;;;;;;5090893;28;20249;-52
2022/03/01 10:20:08;;;;;;;5.77;3.60;;;17.50;36.30;;;;;;5091432;28;20203;-51
2022/03/01 10:22:37;;;;;;;5.97;3.20;;;18.30;35.90;;;;;;5090582;28;20183;-54
2022/03/01 10:25:07;;;;;;;4.37;3.03;;;19.40;35.50;;;;;;5089159;28;20209;-51
2022/03/01 10:27:36;;;;;;;4.20;3.30;;;20.50;34.60;;;;;;5100440;28;20197;-52
2022/03/01 10:30:06;;;;;;;6.03;2.87;;;21.50;33.60;;;;;;5091393;28;20224;-53
2022/03/01 10:32:33;;;;;;;4.00;3.03;;;22.40;32.50;;;;;;5101820;27;20241;-50
2022/03/01 10:35:02;;;;;;;3.63;2.85;;;23.10;32.60;;;;;;5081208;28;20189;-47
2022/03/01 10:37:30;;;;;;;4.15;3.22;;;23.80;31.60;;;;;;5079972;28;20201;-49
2022/03/01 10:40:15;;;;;;;3.60;3.10;;;24.60;30.50;;;;;;5082684;28;20286;-49
2022/03/01 10:42:44;;;;;;;4.82;3.22;;;25.10;30.20;;;;;;5082219;28;20287;-53
2022/03/01 10:45:12;;;;;;;5.15;3.47;;;25.60;29.00;;;;;;5090729;28;20786;-52
2022/03/01 10:47:52;;;;;;;3.80;3.28;;;26.10;28.60;;;;;;5090121;28;20394;-51
2022/03/01 10:50:19;;;;;;;4.95;3.53;;;26.30;28.30;;;;;;5081109;28;20193;-52
2022/03/01 10:52:47;;;;;;;4.15;3.40;;;26.70;27.60;;;;;;5083944;28;20287;-53
2022/03/01 10:55:23;;;;;;;4.63;3.33;;;26.80;27.40;;;;;;5078366;28;20568;-54
2022/03/01 10:58:03;;;;;;;4.60;3.08;;;26.90;27.30;;;;;;5083542;28;20192;-52
2022/03/01 11:00:32;;;;;;;3.95;3.33;;;26.90;27.20;;;;;;5078743;28;20275;-53
2022/03/01 11:02:59;;;;;;;4.88;3.42;;;26.40;27.10;;;;;;5079376;28;20205;-49
2022/03/01 11:05:29;;;;;;;3.13;2.65;;;25.80;27.30;;;;;;5083863;28;20981;-45
2022/03/01 11:08:01;;;;;;;3.40;3.10;;;25.30;27.50;;;;;;5090684;28;20308;-50
2022/03/01 11:10:31;;;;;;;4.50;3.20;;;24.80;27.30;;;;;;5090629;28;20735;-52
2022/03/01 11:13:01;;;;;;;4.20;3.20;;;24.70;27.40;;;;;;5089283;28;20245;-49
2022/03/01 11:15:45;;;;;;;10.30;4.35;;;24.70;27.30;;;;;;5089766;28;20285;-49
2022/03/01 11:18:25;;;;;;;43.00;7.47;;;24.10;26.70;;;;;;5100449;28;20228;-51
2022/03/01 11:20:54;;;;;;;19.80;5.80;;;23.00;26.10;;;;;;5087489;28;20667;-50
2022/03/01 11:23:24;;;;;;;6.70;4.00;;;22.00;26.30;;;;;;5089689;28;20781;-51
2022/03/01 11:25:53;;;;;;;7.90;4.55;;;21.70;27.10;;;;;;5088886;28;20285;-50
2022/03/01 11:28:39;;;;;;;5.80;3.83;;;21.40;27.00;;;;;;5083676;28;20211;-53
2022/03/01 11:31:18;;;;;;;8.68;4.15;;;21.00;27.10;;;;;;5090935;28;20203;-53
2022/03/01 11:33:55;;;;;;;5.05;4.00;;;20.70;27.30;;;;;;5083475;28;20250;-53
2022/03/01 11:36:23;;;;;;;6.15;3.63;;;20.30;27.00;;;;;;5086339;28;20220;-49
2022/03/01 11:38:50;;;;;;;7.20;3.75;;;19.70;26.80;;;;;;5072796;28;20565;-50
2022/03/01 11:41:22;;;;;;;9.43;4.30;;;19.20;26.60;;;;;;5101242;28;20205;-55
2022/03/01 11:43:56;;;;;;;5.68;3.72;;;19.00;26.90;;;;;;5078663;28;20197;-53
2022/03/01 11:46:24;;;;;;;6.13;4.15;;;18.90;26.90;;;;;;5103434;28;20230;-52
2022/03/01 11:48:54;;;;;;;5.60;3.60;;;18.90;26.80;;;;;;5097037;28;20234;-54
2022/03/01 11:51:32;;;;;;;7.65;4.22;;;18.60;26.60;;;;;;5078879;28;20195;-53
2022/03/01 11:54:02;;;;;;;7.47;5.10;;;18.30;26.80;;;;;;5072718;28;20213;-52
2022/03/01 11:56:30;;;;;;;7.77;4.13;;;18.20;26.90;;;;;;5084697;28;20244;-54
2022/03/01 11:59:06;;;;;;;6.60;3.83;;;18.10;27.20;;;;;;5079834;28;20200;-53
2022/03/01 12:01:34;;;;;;;7.50;4.30;;;18.50;27.40;;;;;;5091992;28;20259;-57
2022/03/01 12:04:04;;;;;;;6.95;4.47;;;18.80;26.90;;;;;;5090075;28;20254;-50
2022/03/01 12:06:32;;;;;;;6.40;4.10;;;19.00;26.70;;;;;;5089859;28;20205;-51
2022/03/01 12:09:02;;;;;;;4.30;3.28;;;18.70;26.60;;;;;;5086069;28;20190;-50
2022/03/01 12:11:37;;;;;;;5.30;3.70;;;18.50;27.00;;;;;;5087747;28;20195;-53
2022/03/01 12:14:08;;;;;;;4.20;3.20;;;18.30;27.30;;;;;;5089493;28;20231;-53
2022/03/01 12:16:36;;;;;;;4.25;3.22;;;18.50;27.50;;;;;;5103576;28;20201;-50
2022/03/01 12:19:09;;;;;;;4.88;3.28;;;19.10;27.10;;;;;;5091308;28;20640;-52
2022/03/01 12:21:36;;;;;;;5.90;3.85;;;19.90;26.80;;;;;;5082709;28;20303;-51
2022/03/01 12:24:04;;;;;;;3.67;2.60;;;20.40;26.20;;;;;;5081097;28;20200;-48
2022/03/01 12:26:32;;;;;;;5.97;3.30;;;20.50;25.90;;;;;;5086279;28;20220;-52
2022/03/01 12:29:01;;;;;;;7.28;3.45;;;20.50;26.10;;;;;;5087221;28;20534;-54
2022/03/01 12:31:30;;;;;;;5.35;3.60;;;20.50;26.00;;;;;;5083296;28;20207;-48
2022/03/01 12:34:02;;;;;;;4.20;3.10;;;20.10;25.50;;;;;;5081146;28;20203;-50
2022/03/01 12:36:31;;;;;;;4.35;3.45;;;19.40;25.80;;;;;;5095104;28;20193;-47
2022/03/01 12:39:00;;;;;;;6.57;3.67;;;19.00;25.70;;;;;;5086736;28;20290;-49
2022/03/01 12:41:28;;;;;;;6.47;3.95;;;18.40;25.80;;;;;;5080914;28;20620;-53
2022/03/01 12:43:57;;;;;;;5.67;3.70;;;18.20;26.20;;;;;;5081284;28;20190;-50
2022/03/01 12:46:24;;;;;;;4.93;3.30;;;18.30;26.50;;;;;;5087781;28;20227;-51
2022/03/01 12:48:54;;;;;;;8.32;4.28;;;18.90;26.60;;;;;;5081087;28;20278;-47
2022/03/01 12:51:22;;;;;;;8.18;3.90;;;19.50;26.30;;;;;;5097547;28;20260;-49
2022/03/01 12:53:55;;;;;;;6.45;4.00;;;20.20;26.50;;;;;;5079156;28;20248;-51
2022/03/01 12:56:24;;;;;;;5.75;3.85;;;21.30;26.20;;;;;;5081536;28;20203;-50
2022/03/01 12:58:53;;;;;;;4.25;2.80;;;22.40;25.90;;;;;;5079209;28;20560;-52
2022/03/01 13:01:21;;;;;;;5.60;3.35;;;23.50;25.70;;;;;;5086747;28;20207;-52
2022/03/01 13:03:50;;;;;;;10.27;3.22;;;24.40;24.70;;;;;;5087008;28;20727;-52
2022/03/01 13:06:20;;;;;;;5.55;3.17;;;25.00;24.50;;;;;;5097152;28;20548;-48
2022/03/01 13:08:53;;;;;;;3.58;3.22;;;25.60;24.70;;;;;;5078601;28;20185;-50
2022/03/01 13:11:21;;;;;;;5.05;3.80;;;26.10;24.30;;;;;;5104146;28;20239;-52
2022/03/01 13:13:50;;;;;;;5.57;3.45;;;26.40;24.10;;;;;;5085212;28;20327;-54
2022/03/01 13:16:20;;;;;;;4.18;3.50;;;26.70;23.80;;;;;;5082665;28;20204;-48
2022/03/01 13:18:48;;;;;;;3.42;3.17;;;27.00;23.90;;;;;;5082762;28;20196;-54
2022/03/01 13:21:22;;;;;;;8.38;3.92;;;27.10;23.50;;;;;;5082126;28;20201;-48
2022/03/01 13:23:51;;;;;;;4.82;3.63;;;27.10;23.00;;;;;;5092165;28;20216;-47
2022/03/01 13:26:19;;;;;;;8.00;3.53;;;26.90;23.00;;;;;;5088376;28;20223;-51
2022/03/01 13:28:46;;;;;;;8.27;4.22;;;26.60;22.80;;;;;;5083243;28;20192;-48
2022/03/01 13:31:21;;;;;;;7.45;4.80;;;26.40;22.80;;;;;;5080922;28;20212;-51
2022/03/01 13:33:53;;;;;;;9.38;4.72;;;25.60;22.60;;;;;;5093597;28;20295;-48
2022/03/01 13:36:22;;;;;;;12.40;4.80;;;24.10;22.70;;;;;;5086469;28;20247;-51
2022/03/01 13:39:01;;;;;;;5.63;4.30;;;22.70;23.10;;;;;;5085026;28;20205;-51
2022/03/01 13:41:31;;;;;;;6.65;4.40;;;21.20;23.40;;;;;;5080379;28;20199;-50
2022/03/01 13:44:09;;;;;;;6.40;4.45;;;20.00;24.00;;;;;;5090676;28;20201;-47
2022/03/01 13:46:36;;;;;;;7.70;4.60;;;19.10;24.50;;;;;;5082130;28;20205;-50
2022/03/01 13:49:06;;;;;;;5.97;4.00;;;18.10;24.90;;;;;;5077845;28;20672;-49
2022/03/01 13:51:33;;;;;;;10.07;4.80;;;17.50;25.80;;;;;;5084939;28;20204;-52
2022/03/01 13:54:08;;;;;;;7.67;4.43;;;16.90;25.60;;;;;;5079941;28;20669;-53
2022/03/01 13:56:38;;;;;;;5.87;3.80;;;16.30;25.90;;;;;;5084502;28;21012;-51
2022/03/01 13:59:06;;;;;;;5.77;3.70;;;16.00;26.30;;;;;;5086373;28;20663;-49
2022/03/01 14:01:33;;;;;;;12.13;4.83;;;15.70;26.50;;;;;;5084873;28;20207;-54
2022/03/01 14:04:04;;;;;;;5.87;4.43;;;15.40;26.70;;;;;;5096455;28;20228;-50
2022/03/01 14:06:32;;;;;;;10.00;4.93;;;15.10;27.00;;;;;;5083060;28;20252;-51
2022/03/01 14:09:00;;;;;;;8.83;4.50;;;14.90;27.20;;;;;;5083195;28;20201;-53
2022/03/01 14:11:29;;;;;;;5.60;4.00;;;14.60;27.40;;;;;;5092431;28;20197;-53
2022/03/01 14:13:56;;;;;;;7.90;5.07;;;14.30;27.60;;;;;;5093088;28;20195;-53
2022/03/01 14:16:25;;;;;;;8.77;4.00;;;14.20;27.80;;;;;;5099170;28;20200;-53
2022/03/01 14:18:58;;;;;;;5.23;3.70;;;14.10;28.00;;;;;;5086408;28;20228;-51
2022/03/01 14:21:26;;;;;;;8.33;4.93;;;14.00;28.10;;;;;;5081573;28;20200;-51
2022/03/01 14:23:54;;;;;;;10.13;5.73;;;14.00;28.30;;;;;;5099228;28;20208;-52
2022/03/01 14:26:22;;;;;;;8.43;4.97;;;13.90;28.70;;;;;;5079552;28;20594;-47
2022/03/01 14:28:54;;;;;;;10.03;5.53;;;13.80;28.70;;;;;;5092065;28;20564;-50
2022/03/01 14:31:23;;;;;;;14.23;6.30;;;13.60;28.80;;;;;;5079560;28;20207;-50
2022/03/01 14:33:50;;;;;;;10.43;5.57;;;13.50;29.10;;;;;;5084144;28;20201;-53
2022/03/01 14:36:17;;;;;;;11.57;5.97;;;13.40;29.20;;;;;;5094684;28;20192;-48
2022/03/01 14:38:44;;;;;;;8.60;5.23;;;13.30;29.50;;;;;;5093192;28;20205;-48
2022/03/01 14:41:13;;;;;;;8.10;4.83;;;13.20;29.70;;;;;;5090699;28;20208;-49
2022/03/01 14:43:40;;;;;;;7.50;4.60;;;13.00;29.80;;;;;;5089044;28;20565;-53
2022/03/01 14:46:08;;;;;;;10.17;5.13;;;12.90;29.90;;;;;;5092700;28;20553;-51
2022/03/01 14:48:35;;;;;;;9.77;5.50;;;12.90;30.00;;;;;;5093179;28;20198;-51
2022/03/01 14:51:02;;;;;;;11.03;5.77;;;12.80;30.20;;;;;;5091186;28;20531;-48
2022/03/01 14:53:30;;;;;;;6.70;4.03;;;12.70;30.20;;;;;;5083831;28;20205;-51
2022/03/01 14:55:57;;;;;;;10.47;5.10;;;12.60;30.20;;;;;;5097241;28;20634;-52
2022/03/01 14:58:24;;;;;;;8.17;5.30;;;12.60;30.50;;;;;;5091061;28;20197;-51
2022/03/01 15:00:51;;;;;;;15.53;7.60;;;12.50;30.80;;;;;;5092850;28;20201;-49
2022/03/01 15:03:20;;;;;;;14.83;6.93;;;12.40;31.10;;;;;;5090774;28;20715;-53
2022/03/01 15:05:47;;;;;;;13.07;6.13;;;12.20;31.20;;;;;;5091558;28;20213;-51
2022/03/01 15:08:14;;;;;;;13.07;6.50;;;12.10;31.30;;;;;;5104740;28;20295;-53
2022/03/01 15:10:42;;;;;;;11.90;5.67;;;12.00;31.70;;;;;;5095343;28;20296;-53
2022/03/01 15:13:09;;;;;;;12.23;6.00;;;12.00;31.80;;;;;;5092010;27;20218;-56
2022/03/01 15:15:36;;;;;;;8.53;4.93;;;12.00;31.90;;;;;;5086455;28;20204;-52
2022/03/01 15:18:04;;;;;;;12.50;6.00;;;11.90;31.90;;;;;;5094954;28;20830;-53
2022/03/01 15:20:32;;;;;;;11.87;6.30;;;11.80;32.70;;;;;;5091249;28;20214;-53
2022/03/01 15:23:00;;;;;;;15.60;5.97;;;11.70;32.30;;;;;;5087523;28;20192;-49
2022/03/01 15:25:27;;;;;;;10.13;5.23;;;11.60;32.30;;;;;;5091381;28;20196;-50
2022/03/01 15:27:54;;;;;;;10.27;5.50;;;11.60;32.40;;;;;;5083510;28;20609;-53
2022/03/01 15:30:22;;;;;;;14.40;6.50;;;11.60;32.60;;;;;;5086292;28;20615;-53
2022/03/01 15:32:50;;;;;;;10.57;5.17;;;11.50;32.80;;;;;;5085332;28;20204;-53
2022/03/01 15:35:17;;;;;;;8.20;4.60;;;11.40;32.70;;;;;;5083975;28;20759;-54
2022/03/01 15:37:46;;;;;;;9.67;5.13;;;11.40;32.80;;;;;;5087674;28;20202;-51
2022/03/01 15:40:15;;;;;;;11.20;5.37;;;11.40;32.90;;;;;;5092576;28;20193;-52
2022/03/01 15:42:42;;;;;;;9.70;4.83;;;11.30;33.10;;;;;;5086617;28;20200;-52
2022/03/01 15:45:10;;;;;;;8.63;4.43;;;11.20;33.10;;;;;;5088179;28;20266;-52
2022/03/01 15:47:41;;;;;;;7.63;4.30;;;11.10;33.10;;;;;;5088802;28;20691;-53
2022/03/01 15:50:09;;;;;;;9.90;4.57;;;11.10;33.30;;;;;;5085827;28;20189;-52
2022/03/01 15:52:38;;;;;;;11.83;4.83;;;11.10;33.30;;;;;;5083272;28;20201;-48
2022/03/01 15:55:09;;;;;;;8.27;4.17;;;11.00;33.50;;;;;;5079289;28;20205;-52
2022/03/01 15:57:36;;;;;;;8.10;4.50;;;11.00;33.60;;;;;;5083514;28;20556;-51
2022/03/01 16:00:06;;;;;;;6.83;4.23;;;10.90;33.60;;;;;;5080583;28;20193;-52
2022/03/01 16:02:33;;;;;;;8.60;4.47;;;10.90;33.80;;;;;;5079661;28;20667;-47
2022/03/01 16:05:00;;;;;;;11.77;6.70;;;10.90;33.90;;;;;;5076129;28;20221;-49
2022/03/01 16:07:28;;;;;;;11.43;6.10;;;10.90;34.10;;;;;;5080829;28;20220;-46
2022/03/01 16:09:55;;;;;;;8.10;5.00;;;10.90;34.30;;;;;;5081456;28;20208;-52
2022/03/01 16:12:25;;;;;;;9.87;5.17;;;10.80;34.30;;;;;;5090734;28;20447;-47
2022/03/01 16:14:52;;;;;;;10.03;5.10;;;10.80;34.40;;;;;;5105122;27;20549;-52
2022/03/01 16:17:21;;;;;;;8.73;4.83;;;10.80;34.50;;;;;;5094607;28;20197;-48
2022/03/01 16:19:48;;;;;;;11.67;4.53;;;10.70;34.60;;;;;;5088420;28;20192;-52
2022/03/01 16:22:15;;;;;;;14.83;5.83;;;10.60;34.60;;;;;;5102378;28;20504;-52
2022/03/01 16:24:46;;;;;;;9.80;5.90;;;10.60;35.00;;;;;;5085710;28;20205;-50
2022/03/01 16:27:14;;;;;;;14.97;7.23;;;10.50;35.20;;;;;;5075127;28;20695;-49
2022/03/01 16:29:42;;;;;;;12.10;6.20;;;10.50;35.40;;;;;;5081760;28;20225;-52
2022/03/01 16:32:09;;;;;;;9.17;4.73;;;10.50;35.50;;;;;;5093169;28;20190;-51
2022/03/01 16:34:37;;;;;;;24.07;8.33;;;10.50;35.50;;;;;;5078977;28;20578;-53
2022/03/01 16:37:05;;;;;;;19.40;8.10;;;10.40;35.60;;;;;;5083869;28;20304;-50
2022/03/01 16:39:32;;;;;;;25.40;9.87;;;10.40;35.80;;;;;;5082254;28;20193;-48
2022/03/01 16:41:59;;;;;;;26.87;10.40;;;10.30;35.90;;;;;;5083881;28;20222;-53
2022/03/01 16:44:27;;;;;;;19.03;8.00;;;10.30;36.10;;;;;;5084754;28;20194;-50
2022/03/01 16:46:56;;;;;;;15.63;7.47;;;10.20;36.10;;;;;;5089451;28;20211;-50
2022/03/01 16:49:23;;;;;;;17.60;7.60;;;10.20;36.30;;;;;;5078545;28;20274;-53
2022/03/01 16:51:51;;;;;;;16.73;7.90;;;10.10;36.30;;;;;;5088912;28;20203;-53
2022/03/01 16:54:19;;;;;;;17.90;8.03;;;10.10;36.60;;;;;;5089751;28;20196;-54
2022/03/01 16:56:46;;;;;;;17.13;6.63;;;10.00;36.50;;;;;;5086973;28;20202;-52
2022/03/01 16:59:13;;;;;;;13.87;6.10;;;10.00;36.50;;;;;;5091086;28;20201;-48
2022/03/01 17:01:41;;;;;;;22.10;8.23;;;9.90;37.30;;;;;;5090241;28;20208;-53
2022/03/01 17:04:10;;;;;;;20.33;8.00;;;9.90;37.50;;;;;;5095894;28;20272;-51
2022/03/01 17:06:38;;;;;;;24.50;9.97;;;9.90;37.50;;;;;;5095596;28;20211;-52
2022/03/01 17:09:07;;;;;;;20.17;9.27;;;9.90;37.70;;;;;;5090446;28;20669;-50
2022/03/01 17:11:35;;;;;;;24.90;9.63;;;9.90;37.70;;;;;;5091613;28;20215;-53
2022/03/01 17:14:02;;;;;;;23.90;9.90;;;9.80;37.70;;;;;;5088200;28;20254;-48
2022/03/01 17:16:30;;;;;;;22.63;8.77;;;9.80;37.80;;;;;;5090798;28;20193;-49
2022/03/01 17:18:57;;;;;;;20.07;8.13;;;9.80;37.90;;;;;;5098956;28;20689;-51
2022/03/01 17:21:27;;;;;;;14.07;7.03;;;9.80;38.00;;;;;;5093183;28;20210;-48
2022/03/01 17:23:54;;;;;;;17.17;7.93;;;9.80;38.10;;;;;;5097199;28;20203;-54
2022/03/01 17:26:22;;;;;;;16.07;7.77;;;9.70;38.10;;;;;;5087972;28;20286;-52
2022/03/01 17:28:49;;;;;;;18.83;8.00;;;9.70;38.40;;;;;;5096888;28;20566;-52
2022/03/01 17:31:17;;;;;;;15.90;7.13;;;9.60;38.50;;;;;;5086609;28;20193;-51
2022/03/01 17:33:44;;;;;;;19.90;8.90;;;9.60;38.60;;;;;;5089681;28;20264;-53
2022/03/01 17:36:11;;;;;;;24.03;10.07;;;9.50;38.70;;;;;;5092019;28;20626;-51
2022/03/01 17:38:40;;;;;;;20.90;9.33;;;9.50;38.90;;;;;;5079390;28;20644;-55
2022/03/01 17:41:07;;;;;;;24.60;10.20;;;9.40;38.90;;;;;;5101377;27;20209;-52
2022/03/01 17:43:34;;;;;;;17.63;7.93;;;9.40;38.90;;;;;;5096002;28;20200;-53
2022/03/01 17:46:01;;;;;;;18.13;8.10;;;9.30;38.90;;;;;;5092208;28;20642;-52
2022/03/01 17:48:28;;;;;;;15.33;7.17;;;9.30;38.90;;;;;;5091101;28;20273;-54
2022/03/01 17:50:55;;;;;;;11.97;6.47;;;9.30;38.90;;;;;;5076240;28;20207;-50
2022/03/01 17:53:24;;;;;;;12.60;7.03;;;9.30;39.00;;;;;;5086226;28;20204;-51
2022/03/01 17:55:52;;;;;;;21.17;9.60;;;9.30;39.00;;;;;;5089929;28;20586;-53
2022/03/01 17:58:20;;;;;;;23.73;11.03;;;9.30;39.20;;;;;;5091063;28;20188;-50
2022/03/01 18:00:48;;;;;;;24.47;10.77;;;9.30;39.30;;;;;;5091883;28;20665;-46
2022/03/01 18:03:15;;;;;;;28.60;10.70;;;9.30;39.30;;;;;;5085723;28;20208;-50
2022/03/01 18:05:42;;;;;;;23.70;9.83;;;9.30;39.20;;;;;;5089628;28;20752;-48
2022/03/01 18:08:11;;;;;;;18.27;9.07;;;9.30;39.40;;;;;;5080006;28;20491;-50
2022/03/01 18:10:38;;;;;;;21.43;8.83;;;9.20;39.30;;;;;;5089842;28;20195;-47
2022/03/01 18:13:07;;;;;;;23.67;8.90;;;9.20;39.30;;;;;;5081579;28;20734;-50
2022/03/01 18:15:36;;;;;;;26.40;11.80;;;9.20;39.40;;;;;;5086939;28;20561;-48
2022/03/01 18:18:03;;;;;;;22.53;10.50;;;9.10;39.50;;;;;;5084702;28;20346;-49
2022/03/01 18:20:30;;;;;;;21.63;9.60;;;9.00;39.50;;;;;;5082593;28;20200;-49
2022/03/01 18:22:57;;;;;;;28.33;11.50;;;8.90;39.50;;;;;;5074039;28;20207;-46
2022/03/01 18:25:25;;;;;;;31.23;13.77;;;8.90;39.70;;;;;;5081119;28;20650;-50
2022/03/01 18:27:54;;;;;;;25.93;11.73;;;8.90;40.00;;;;;;5075538;28;20217;-49
2022/03/01 18:30:25;;;;;;;23.03;10.80;;;8.90;39.90;;;;;;5078888;28;20199;-48
2022/03/01 18:32:52;;;;;;;22.10;10.63;;;9.00;40.00;;;;;;5076315;28;20189;-46
2022/03/01 18:35:21;;;;;;;20.87;9.83;;;8.90;39.90;;;;;;5091494;28;20246;-52
2022/03/01 18:37:48;;;;;;;21.10;9.67;;;8.90;40.00;;;;;;5085221;28;20699;-44
2022/03/01 18:40:16;;;;;;;23.87;9.80;;;8.90;40.00;;;;;;5078974;28;20203;-51
2022/03/01 18:42:43;;;;;;;24.77;10.30;;;8.90;40.10;;;;;;5093151;28;20222;-50
2022/03/01 18:45:11;;;;;;;20.87;9.93;;;8.90;40.20;;;;;;5078388;28;20674;-49
2022/03/01 18:47:39;;;;;;;27.60;11.97;;;8.90;40.20;;;;;;5101448;27;20213;-48
2022/03/01 18:50:08;;;;;;;24.50;10.63;;;8.90;40.50;;;;;;5093011;28;20206;-54
2022/03/01 18:52:36;;;;;;;21.13;10.07;;;8.90;40.50;;;;;;5091523;28;20720;-48
2022/03/01 18:55:04;;;;;;;21.63;10.40;;;8.90;40.50;;;;;;5087492;28;20279;-54
2022/03/01 18:57:31;;;;;;;26.60;11.97;;;8.90;40.70;;;;;;5083658;28;20260;-49
2022/03/01 18:59:58;;;;;;;35.47;15.57;;;8.90;40.70;;;;;;5106400;28;20214;-51
2022/03/01 19:02:26;;;;;;;28.50;13.33;;;8.90;41.00;;;;;;5094569;28;20583;-47
2022/03/01 19:04:54;;;;;;;34.20;14.17;;;8.80;40.90;;;;;;5090133;28;20585;-52
2022/03/01 19:07:21;;;;;;;40.27;16.43;;;8.80;41.00;;;;;;5085936;28;20220;-49
2022/03/01 19:09:49;;;;;;;55.00;21.03;;;8.80;41.10;;;;;;5087237;28;20776;-45
2022/03/01 19:12:16;;;;;;;56.63;22.50;;;8.80;41.30;;;;;;5082622;28;20254;-48
2022/03/01 19:14:43;;;;;;;48.27;19.60;;;8.80;41.40;;;;;;5089034;28;20289;-46
2022/03/01 19:17:10;;;;;;;41.37;18.53;;;8.70;41.40;;;;;;5083198;28;20199;-46
2022/03/01 19:19:37;;;;;;;50.77;21.57;;;8.70;41.50;;;;;;5082559;28;20198;-50
2022/03/01 19:22:06;;;;;;;47.77;20.10;;;8.60;41.70;;;;;;5085659;28;20195;-47
2022/03/01 19:24:33;;;;;;;41.00;19.87;;;8.60;41.80;;;;;;5078738;28;20201;-46
2022/03/01 19:27:00;;;;;;;50.60;21.50;;;8.50;41.90;;;;;;5075684;28;20712;-50
2022/03/01 19:29:27;;;;;;;64.37;26.30;;;8.40;42.00;;;;;;5081039;28;20199;-45
2022/03/01 19:31:54;;;;;;;95.23;34.77;;;8.40;42.40;;;;;;5081740;28;20530;-51
2022/03/01 19:34:21;;;;;;;74.17;28.63;;;8.30;42.50;;;;;;5080331;28;20195;-50
2022/03/01 19:36:49;;;;;;;69.93;27.60;;;8.30;42.50;;;;;;5093800;28;20211;-49
2022/03/01 19:39:17;;;;;;;64.90;26.03;;;8.30;42.50;;;;;;5089642;28;20193;-50
2022/03/01 19:41:44;;;;;;;58.40;24.53;;;8.20;42.40;;;;;;5086446;28;20215;-50
2022/03/01 19:44:11;;;;;;;63.27;24.40;;;8.20;42.50;;;;;;5086320;28;20643;-45
2022/03/01 19:46:42;;;;;;;58.60;24.37;;;8.20;42.50;;;;;;5087532;28;20189;-49
2022/03/01 19:49:09;;;;;;;77.87;28.03;;;8.10;42.50;;;;;;5086492;28;20200;-50
2022/03/01 19:51:36;;;;;;;83.00;29.43;;;8.10;42.60;;;;;;5087286;28;20196;-48
2022/03/01 19:54:04;;;;;;;81.93;28.03;;;8.00;42.70;;;;;;5083168;28;20259;-52
2022/03/01 19:56:32;;;;;;;87.70;32.20;;;8.00;42.90;;;;;;5090085;28;20287;-51
2022/03/01 19:59:00;;;;;;;115.17;40.60;;;7.90;43.00;;;;;;5083196;28;20201;-53
2022/03/01 20:01:28;;;;;;;127.10;43.43;;;7.80;43.20;;;;;;5083086;28;20195;-48
2022/03/01 20:03:55;;;;;;;100.00;37.17;;;7.80;43.60;;;;;;5083338;28;20197;-49
2022/03/01 20:06:23;;;;;;;98.33;35.10;;;7.80;43.60;;;;;;5090437;28;20632;-47
2022/03/01 20:08:51;;;;;;;86.20;31.50;;;7.70;43.50;;;;;;5077538;28;20221;-47
2022/03/01 20:11:18;;;;;;;83.80;30.40;;;7.60;43.50;;;;;;5081290;28;20204;-51
2022/03/01 20:13:48;;;;;;;89.30;31.30;;;7.60;43.70;;;;;;5080274;28;20564;-47
2022/03/01 20:16:15;;;;;;;74.33;28.40;;;7.50;43.70;;;;;;5082696;28;20196;-48
2022/03/01 20:18:42;;;;;;;84.93;31.13;;;7.50;43.80;;;;;;5078830;28;20212;-47
2022/03/01 20:21:11;;;;;;;80.57;29.87;;;7.40;44.00;;;;;;5093315;28;20212;-53
2022/03/01 20:23:38;;;;;;;66.20;25.70;;;7.30;44.10;;;;;;5088194;28;20203;-48
2022/03/01 20:26:12;;;;;;;69.73;24.63;;;7.30;44.20;;;;;;5090013;28;20200;-51
2022/03/01 20:28:39;;;;;;;66.67;24.83;;;7.30;44.20;;;;;;5084641;28;20230;-48
2022/03/01 20:31:08;;;;;;;61.93;23.20;;;7.20;44.30;;;;;;5094301;28;20203;-48
2022/03/01 20:33:35;;;;;;;61.60;24.33;;;7.30;44.50;;;;;;5088856;28;20200;-45
2022/03/01 20:36:04;;;;;;;60.47;23.40;;;7.30;44.50;;;;;;5087489;28;20193;-45
2022/03/01 20:38:31;;;;;;;59.53;22.93;;;7.30;45.10;;;;;;5086478;28;20285;-48
2022/03/01 20:40:59;;;;;;;53.33;20.47;;;7.30;44.50;;;;;;5092283;28;20249;-45
2022/03/01 20:43:27;;;;;;;62.27;22.83;;;7.40;44.60;;;;;;5088340;28;20671;-45
2022/03/01 20:45:54;;;;;;;64.83;22.73;;;7.30;44.60;;;;;;5089355;28;20220;-45
2022/03/01 20:48:23;;;;;;;76.03;26.73;;;7.30;44.60;;;;;;5085694;28;20219;-46
2022/03/01 20:50:50;;;;;;;77.73;28.67;;;7.30;44.80;;;;;;5087654;28;20208;-46
2022/03/01 20:53:20;;;;;;;80.50;28.37;;;7.30;45.00;;;;;;5085446;28;20541;-44
2022/03/01 20:55:51;;;;;;;68.93;25.87;;;7.30;45.10;;;;;;5089027;28;20204;-44
2022/03/01 20:58:18;;;;;;;73.70;26.97;;;7.40;45.10;;;;;;5084647;28;20211;-48
2022/03/01 21:00:46;;;;;;;61.60;23.50;;;7.30;45.00;;;;;;5088582;28;21224;-46
2022/03/01 21:03:13;;;;;;;57.43;22.20;;;7.30;45.10;;;;;;5084768;28;20573;-46
2022/03/01 21:05:42;;;;;;;60.47;21.83;;;7.30;45.20;;;;;;5089608;28;20228;-48
2022/03/01 21:08:09;;;;;;;53.73;21.93;;;7.30;45.30;;;;;;5097448;28;20212;-44
2022/03/01 21:10:38;;;;;;;52.27;21.63;;;7.30;45.30;;;;;;5102809;28;20211;-48
2022/03/01 21:13:06;;;;;;;63.87;22.80;;;7.20;45.30;;;;;;5097781;28;20207;-46
2022/03/01 21:15:34;;;;;;;56.20;21.07;;;7.20;45.40;;;;;;5084320;28;20201;-46
2022/03/01 21:18:04;;;;;;;56.47;21.73;;;7.20;45.50;;;;;;5089199;28;20196;-49
2022/03/01 21:20:33;;;;;;;51.93;19.90;;;7.10;45.50;;;;;;5089660;28;20207;-47
2022/03/01 21:23:04;;;;;;;56.30;21.27;;;7.10;45.50;;;;;;5086381;28;20204;-47
2022/03/01 21:25:31;;;;;;;54.67;21.37;;;7.00;45.60;;;;;;5089934;28;20194;-53
2022/03/01 21:28:00;;;;;;;56.10;23.27;;;7.00;45.70;;;;;;5081196;28;20208;-48
2022/03/01 21:30:27;;;;;;;65.50;24.47;;;7.00;45.90;;;;;;5089377;28;20243;-46
2022/03/01 21:32:55;;;;;;;62.60;24.30;;;7.00;46.10;;;;;;5085158;28;20222;-50
2022/03/01 21:35:23;;;;;;;55.17;23.13;;;7.00;46.20;;;;;;5088831;28;20203;-49
2022/03/01 21:37:51;;;;;;;55.23;21.20;;;7.00;46.20;;;;;;5084536;28;20283;-48
2022/03/01 21:40:20;;;;;;;57.30;22.17;;;6.90;46.20;;;;;;5077688;28;20200;-51
2022/03/01 21:42:47;;;;;;;54.50;21.30;;;6.80;46.20;;;;;;5088150;28;20652;-45
2022/03/01 21:45:15;;;;;;;49.83;20.00;;;6.80;46.30;;;;;;5081867;28;20689;-52
2022/03/01 21:47:43;;;;;;;50.30;19.63;;;6.80;46.40;;;;;;5084277;28;20233;-50
2022/03/01 21:50:11;;;;;;;54.10;19.57;;;6.80;46.40;;;;;;5089229;28;20225;-46
2022/03/01 21:52:38;;;;;;;53.90;20.63;;;6.80;46.50;;;;;;5088902;28;20192;-46
2022/03/01 21:55:08;;;;;;;51.30;19.00;;;6.80;46.60;;;;;;5084383;28;20191;-50